createdAt,value
2019-04-14T00:01:13.240Z,47.10
2019-04-14T00:04:05.283Z,47.63
2019-04-14T00:06:41.905Z,49.07
2019-04-14T00:09:20.462Z,46.83
2019-04-14T00:11:56.822Z,47.77
2019-04-14T00:14:31.691Z,48.67
2019-04-14T00:17:06.621Z,47.30
2019-04-14T00:19:41.370Z,47.67
2019-04-14T00:22:16.305Z,48.23
2019-04-14T00:24:51.133Z,48.03
2019-04-14T00:27:25.964Z,44.00
2019-04-14T00:30:01.154Z,47.07
2019-04-14T00:32:44.454Z,44.30
2019-04-14T00:35:29.915Z,44.13
2019-04-14T00:38:17.417Z,43.43
2019-04-14T00:41:18.001Z,42.83
2019-04-14T00:44:12.699Z,42.80
2019-04-14T00:46:54.199Z,44.27
2019-04-14T00:49:29.191Z,44.87
2019-04-14T00:52:04.099Z,45.40
2019-04-14T00:54:39.378Z,47.30
2019-04-14T00:57:14.290Z,45.40
2019-04-14T00:59:49.098Z,47.10
2019-04-14T01:02:23.889Z,45.60
2019-04-14T01:05:00.026Z,44.43
2019-04-14T01:07:35.031Z,45.10
2019-04-14T01:10:10.409Z,47.10
2019-04-14T01:12:45.368Z,47.27
2019-04-14T01:15:20.156Z,45.97
2019-04-14T01:17:54.999Z,44.70
2019-04-14T01:20:29.832Z,44.93
2019-04-14T01:23:04.738Z,48.13
2019-04-14T01:25:39.447Z,47.60
2019-04-14T01:28:14.175Z,47.23
2019-04-14T01:30:50.037Z,48.23
2019-04-14T01:33:25.048Z,48.73
2019-04-14T01:35:59.963Z,41.67
2019-04-14T01:38:34.706Z,45.17
2019-04-14T01:41:10.589Z,46.93
2019-04-14T01:43:45.530Z,45.97
2019-04-14T01:46:25.770Z,50.07
2019-04-14T01:48:56.755Z,46.30
2019-04-14T01:51:50.711Z,49.73
2019-04-14T01:54:34.764Z,47.90
2019-04-14T01:57:28.433Z,49.10
2019-04-14T02:00:22.751Z,48.53
2019-04-14T02:02:57.741Z,46.63
2019-04-14T02:05:32.458Z,47.53
2019-04-14T02:08:07.291Z,47.77
2019-04-14T02:10:43.362Z,46.90
2019-04-14T02:13:18.395Z,44.73
2019-04-14T02:15:53.242Z,48.70
2019-04-14T02:18:27.989Z,49.17
2019-04-14T02:21:02.789Z,49.50
2019-04-14T02:23:38.669Z,49.83
2019-04-14T02:26:13.575Z,47.83
2019-04-14T02:28:48.349Z,49.13
2019-04-14T02:31:43.308Z,49.03
2019-04-14T02:34:34.194Z,47.97
2019-04-14T02:37:08.357Z,45.63
2019-04-14T02:39:38.638Z,48.33
2019-04-14T02:42:34.323Z,45.80
2019-04-14T02:47:48.898Z,47.00
2019-04-14T02:50:08.743Z,46.00
2019-04-14T02:52:41.576Z,45.73
2019-04-14T02:55:15.845Z,46.50
2019-04-14T02:57:52.843Z,47.70
2019-04-14T03:00:49.017Z,46.60
2019-04-14T03:03:10.585Z,44.50
2019-04-14T03:08:29.424Z,46.43
2019-04-14T03:11:04.023Z,45.63
2019-04-14T03:13:35.139Z,45.07
2019-04-14T03:16:17.543Z,46.03
2019-04-14T03:19:20.444Z,46.27
2019-04-14T03:22:12.577Z,46.77
2019-04-14T03:24:46.616Z,46.60
2019-04-14T03:33:54.312Z,44.03
2019-04-14T03:36:20.971Z,43.90
2019-04-14T03:41:17.441Z,44.57
2019-04-14T03:43:43.075Z,44.93
2019-04-14T03:46:25.451Z,45.70
2019-04-14T03:49:06.281Z,44.53
2019-04-14T03:51:55.838Z,45.00
2019-04-14T03:54:11.036Z,45.33
2019-04-14T03:56:46.772Z,45.07
2019-04-14T03:59:22.011Z,45.57
2019-04-14T04:01:58.611Z,43.97
2019-04-14T04:04:33.779Z,44.37
2019-04-14T04:07:08.556Z,47.33
2019-04-14T04:09:54.624Z,46.60
2019-04-14T04:12:29.429Z,46.00
2019-04-14T04:15:04.701Z,46.03
2019-04-14T04:17:51.668Z,45.77
2019-04-14T04:20:52.437Z,46.03
2019-04-14T04:23:36.228Z,47.37
2019-04-14T04:26:19.507Z,45.57
2019-04-14T04:29:11.226Z,47.53
2019-04-14T04:32:05.702Z,47.40
2019-04-14T04:34:59.939Z,45.63
2019-04-14T04:37:39.230Z,46.90
2019-04-14T04:40:20.675Z,48.10
2019-04-14T04:42:55.452Z,46.43
2019-04-14T04:45:30.179Z,47.97
2019-04-14T04:48:05.042Z,47.87
2019-04-14T04:50:40.926Z,47.47
2019-04-14T04:53:15.914Z,46.27
2019-04-14T04:55:50.672Z,49.13
2019-04-14T04:58:26.247Z,49.17
2019-04-14T05:01:01.470Z,48.17
2019-04-14T05:03:36.413Z,48.37
2019-04-14T05:07:03.164Z,47.13
2019-04-14T05:09:57.764Z,47.80
2019-04-14T05:12:54.842Z,48.67
2019-04-14T05:16:04.236Z,48.90
2019-04-14T05:18:39.848Z,47.40
2019-04-14T05:21:14.924Z,50.87
2019-04-14T05:23:49.734Z,50.03
2019-04-14T05:26:24.493Z,50.80
2019-04-14T05:28:59.371Z,50.67
2019-04-14T05:31:34.117Z,49.37
2019-04-14T05:34:08.833Z,50.90
2019-04-14T05:36:43.722Z,47.73
2019-04-14T05:39:19.983Z,49.60
2019-04-14T05:42:04.335Z,47.03
2019-04-14T05:44:31.895Z,48.53
2019-04-14T05:47:06.836Z,49.53
2019-04-14T05:49:46.888Z,49.00
2019-04-14T05:52:18.501Z,51.40
2019-04-14T05:54:53.647Z,48.33
2019-04-14T05:57:28.456Z,50.37
2019-04-14T06:00:03.859Z,49.90
2019-04-14T06:02:39.887Z,49.80
2019-04-14T06:05:14.863Z,49.10
2019-04-14T06:07:49.592Z,51.07
2019-04-14T06:10:24.417Z,49.10
2019-04-14T06:12:59.144Z,47.10
2019-04-14T06:15:34.657Z,47.57
2019-04-14T06:18:09.470Z,48.80
2019-04-14T06:20:44.319Z,48.63
2019-04-14T06:23:19.031Z,49.57
2019-04-14T06:25:53.856Z,51.77
2019-04-14T06:28:28.683Z,42.90
2019-04-14T06:31:21.596Z,48.83
2019-04-14T06:34:16.624Z,51.73
2019-04-14T06:37:02.868Z,49.50
2019-04-14T06:39:41.987Z,37.10
2019-04-14T06:42:16.801Z,50.60
2019-04-14T06:44:51.568Z,48.57
2019-04-14T06:47:26.327Z,48.47
2019-04-14T06:50:01.054Z,49.70
2019-04-14T06:52:36.912Z,43.53
2019-04-14T06:55:11.647Z,48.00
2019-04-14T06:57:46.404Z,49.87
2019-04-14T07:00:21.215Z,51.10
2019-04-14T07:02:55.962Z,44.23
2019-04-14T07:05:30.700Z,47.70
2019-04-14T07:08:05.516Z,46.40
2019-04-14T07:10:40.312Z,48.63
2019-04-14T07:13:19.253Z,45.90
2019-04-14T07:15:52.671Z,49.50
2019-04-14T07:18:27.504Z,45.97
2019-04-14T07:21:02.430Z,47.37
2019-04-14T07:23:37.250Z,44.10
2019-04-14T07:26:12.060Z,46.83
2019-04-14T07:28:56.712Z,41.73
2019-04-14T07:31:47.021Z,41.53
2019-04-14T07:34:39.769Z,42.63
2019-04-14T07:37:35.231Z,44.13
2019-04-14T07:40:28.002Z,41.73
2019-04-14T07:43:09.391Z,44.63
2019-04-14T07:45:55.150Z,36.97
2019-04-14T07:48:41.311Z,42.73
2019-04-14T07:51:26.213Z,37.17
2019-04-14T07:54:08.625Z,41.90
2019-04-14T07:57:11.343Z,45.33
2019-04-14T08:00:20.292Z,43.27
2019-04-14T08:02:59.619Z,43.07
2019-04-14T08:05:39.102Z,46.83
2019-04-14T08:08:13.850Z,47.07
2019-04-14T08:10:48.586Z,44.53
2019-04-14T08:13:23.483Z,45.93
2019-04-14T08:15:58.244Z,48.07
2019-04-14T08:18:33.079Z,46.23
2019-04-14T08:21:07.944Z,48.80
2019-04-14T08:23:42.758Z,47.33
2019-04-14T08:26:17.562Z,43.10
2019-04-14T08:28:52.376Z,48.37
2019-04-14T08:31:27.248Z,48.07
2019-04-14T08:34:02.140Z,39.40
2019-04-14T08:36:37.020Z,48.20
2019-04-14T08:39:11.852Z,48.47
2019-04-14T08:41:54.572Z,50.43
2019-04-14T08:44:35.438Z,49.87
2019-04-14T08:47:24.964Z,37.90
2019-04-14T08:50:08.009Z,51.67
2019-04-14T08:52:58.583Z,50.03
2019-04-14T08:55:55.592Z,51.63
2019-04-14T08:58:53.208Z,47.47
2019-04-14T09:01:39.965Z,48.40
2019-04-14T09:04:30.761Z,49.17
2019-04-14T09:07:25.707Z,48.13
2019-04-14T09:10:09.772Z,48.77
2019-04-14T09:12:45.299Z,49.67
2019-04-14T09:15:20.168Z,49.67
2019-04-14T09:17:54.912Z,49.00
2019-04-14T09:20:30.031Z,50.53
2019-04-14T09:23:04.989Z,50.33
2019-04-14T09:25:39.721Z,46.90
2019-04-14T09:28:14.438Z,49.60
2019-04-14T09:30:49.314Z,49.53
2019-04-14T09:33:24.044Z,50.80
2019-04-14T09:35:58.903Z,49.50
2019-04-14T09:38:33.712Z,49.93
2019-04-14T09:41:08.446Z,49.53
2019-04-14T09:43:43.279Z,52.77
2019-04-14T09:46:18.234Z,46.60
2019-04-14T09:48:53.232Z,49.63
2019-04-14T09:51:27.973Z,46.87
2019-04-14T09:54:02.773Z,50.03
2019-04-14T09:56:37.531Z,51.43
2019-04-14T09:59:12.387Z,48.80
2019-04-14T10:01:47.448Z,39.27
2019-04-14T10:04:22.168Z,39.57
2019-04-14T10:06:57.013Z,51.13
2019-04-14T10:09:31.987Z,47.73
2019-04-14T10:12:06.846Z,44.33
2019-04-14T10:14:41.567Z,51.10
2019-04-14T10:17:16.429Z,50.13
2019-04-14T10:19:51.406Z,51.00
2019-04-14T10:22:33.696Z,40.30
2019-04-14T10:25:02.619Z,49.60
2019-04-14T10:27:37.389Z,49.53
2019-04-14T10:30:12.258Z,49.77
2019-04-14T10:32:47.000Z,34.93
2019-04-14T10:35:21.819Z,48.50
2019-04-14T10:37:56.611Z,49.23
2019-04-14T10:40:31.507Z,48.70
2019-04-14T10:43:06.822Z,49.57
2019-04-14T10:45:41.555Z,47.47
2019-04-14T10:48:16.366Z,49.63
2019-04-14T10:50:51.291Z,48.73
2019-04-14T10:53:26.217Z,49.17
2019-04-14T10:56:01.046Z,48.97
2019-04-14T10:58:35.815Z,51.67
2019-04-14T11:01:13.987Z,49.43
2019-04-14T11:03:48.774Z,49.30
2019-04-14T11:06:34.494Z,47.57
2019-04-14T11:09:13.876Z,52.13
2019-04-14T11:11:48.704Z,50.97
2019-04-14T11:14:23.588Z,53.03
2019-04-14T11:16:58.327Z,42.83
2019-04-14T11:19:33.205Z,48.97
2019-04-14T11:22:08.776Z,50.83
2019-04-14T11:24:43.496Z,48.53
2019-04-14T11:27:18.263Z,44.30
2019-04-14T11:29:54.120Z,52.37
2019-04-14T11:32:48.696Z,48.57
2019-04-14T11:35:26.940Z,49.40
2019-04-14T11:38:17.035Z,42.37
2019-04-14T11:40:57.041Z,50.53
2019-04-14T11:43:31.891Z,49.27
2019-04-14T11:46:06.750Z,49.60
2019-04-14T11:48:42.047Z,51.57
2019-04-14T11:51:16.971Z,53.33
2019-04-14T11:53:51.762Z,45.70
2019-04-14T11:56:26.667Z,51.53
2019-04-14T11:59:03.634Z,48.93
2019-04-14T12:02:03.635Z,48.40
2019-04-14T12:04:51.586Z,48.77
2019-04-14T12:07:42.231Z,48.17
2019-04-14T12:10:23.294Z,53.27
2019-04-14T12:12:58.043Z,50.33
2019-04-14T12:15:34.432Z,49.33
2019-04-14T12:18:09.394Z,48.13
2019-04-14T12:20:44.323Z,49.83
2019-04-14T12:23:19.144Z,39.90
2019-04-14T12:26:05.316Z,46.87
2019-04-14T12:28:32.518Z,50.60
2019-04-14T12:31:08.688Z,53.17
2019-04-14T12:33:43.713Z,48.87
2019-04-14T12:36:19.106Z,50.70
2019-04-14T12:38:54.892Z,41.87
2019-04-14T12:41:38.395Z,52.67
2019-04-14T12:44:31.012Z,50.53
2019-04-14T12:47:27.844Z,51.63
2019-04-14T12:50:03.717Z,54.57
2019-04-14T12:52:46.494Z,52.93
2019-04-14T12:55:25.957Z,52.70
2019-04-14T12:58:05.001Z,51.97
2019-04-14T13:01:02.323Z,53.80
2019-04-14T13:03:42.021Z,54.33
2019-04-14T13:06:17.140Z,43.13
2019-04-14T13:08:52.065Z,49.93
2019-04-14T13:11:27.023Z,42.93
2019-04-14T13:14:01.968Z,51.80
2019-04-14T13:16:36.950Z,52.13
2019-04-14T13:19:11.833Z,49.23
2019-04-14T13:21:46.786Z,50.73
2019-04-14T13:24:21.506Z,51.70
2019-04-14T13:26:56.472Z,49.87
2019-04-14T13:29:31.624Z,50.60
2019-04-14T13:32:08.425Z,51.73
2019-04-14T13:34:45.091Z,53.90
2019-04-14T13:37:20.010Z,50.67
2019-04-14T13:39:55.894Z,52.97
2019-04-14T13:42:30.824Z,52.03
2019-04-14T13:45:07.515Z,49.53
2019-04-14T13:47:42.445Z,51.03
2019-04-14T13:50:24.058Z,53.73
2019-04-14T13:53:03.328Z,52.50
2019-04-14T13:55:38.572Z,53.53
2019-04-14T13:58:14.445Z,52.93
2019-04-14T14:00:49.543Z,52.93
2019-04-14T14:03:29.469Z,53.40
2019-04-14T14:06:04.626Z,50.93
2019-04-14T14:08:39.350Z,51.97
2019-04-14T14:11:23.419Z,51.67
2019-04-14T14:14:20.068Z,53.53
2019-04-14T14:17:10.972Z,52.63
2019-04-14T14:19:53.446Z,51.90
2019-04-14T14:23:02.536Z,52.03
2019-04-14T14:25:59.347Z,50.90
2019-04-14T14:28:34.074Z,50.93
2019-04-14T14:31:08.883Z,51.33
2019-04-14T14:33:45.361Z,50.67
2019-04-14T14:36:20.287Z,50.90
2019-04-14T14:38:55.358Z,50.90
2019-04-14T14:41:33.279Z,50.67
2019-04-14T14:44:08.127Z,52.13
2019-04-14T14:47:11.455Z,54.27
2019-04-14T14:50:04.804Z,52.20
2019-04-14T14:52:41.522Z,52.07
2019-04-14T14:55:16.480Z,49.97
2019-04-14T14:57:51.219Z,52.40
2019-04-14T15:00:36.196Z,53.87
2019-04-14T15:03:11.306Z,53.20
2019-04-14T15:05:46.035Z,51.70
2019-04-14T15:08:20.930Z,51.67
2019-04-14T15:10:55.664Z,51.13
2019-04-14T15:13:30.551Z,51.53
2019-04-14T15:16:06.515Z,51.60
2019-04-14T15:18:42.348Z,51.77
2019-04-14T15:21:18.203Z,53.37
2019-04-14T15:23:53.097Z,50.47
2019-04-14T15:26:27.975Z,52.80
2019-04-14T15:29:02.911Z,52.83
2019-04-14T15:31:37.660Z,51.27
2019-04-14T15:34:12.501Z,50.63
2019-04-14T15:36:47.231Z,50.47
2019-04-14T15:39:21.967Z,48.73
2019-04-14T15:41:56.707Z,49.00
2019-04-14T15:44:31.470Z,50.90
2019-04-14T15:47:06.243Z,48.43
2019-04-14T15:49:40.991Z,49.07
2019-04-14T15:52:15.805Z,49.77
2019-04-14T15:54:53.025Z,49.63
2019-04-14T15:57:32.516Z,49.47
2019-04-14T16:00:26.348Z,51.57
2019-04-14T16:03:26.031Z,48.80
2019-04-14T16:06:23.997Z,49.90
2019-04-14T16:09:17.922Z,49.63
2019-04-14T16:12:14.585Z,48.93
2019-04-14T16:15:17.651Z,51.03
2019-04-14T16:18:23.843Z,47.67
2019-04-14T16:20:58.660Z,49.20
2019-04-14T16:23:33.603Z,48.53
2019-04-14T16:26:26.284Z,47.77
2019-04-14T16:29:12.990Z,48.07
2019-04-14T16:32:15.835Z,48.57
2019-04-14T16:34:56.729Z,49.40
2019-04-14T16:37:50.708Z,49.13
2019-04-14T16:40:25.531Z,48.67
2019-04-14T16:43:00.284Z,47.57
2019-04-14T16:45:35.244Z,47.83
2019-04-14T16:48:10.255Z,47.20
2019-04-14T16:50:46.368Z,49.57
2019-04-14T16:53:29.767Z,49.63
2019-04-14T16:56:23.896Z,49.27
2019-04-14T16:59:02.255Z,48.43
2019-04-14T17:01:39.836Z,47.40
2019-04-14T17:04:14.716Z,47.57
2019-04-14T17:06:49.603Z,49.13
2019-04-14T17:09:24.409Z,48.73
2019-04-14T17:11:59.565Z,47.90
2019-04-14T17:14:39.318Z,48.17
2019-04-14T17:17:42.001Z,50.50
2019-04-14T17:20:54.176Z,55.77
2019-04-14T17:23:36.120Z,51.73
2019-04-14T17:26:17.169Z,49.67
2019-04-14T17:28:56.934Z,49.33
2019-04-14T17:31:51.183Z,50.57
2019-04-14T17:34:52.260Z,48.77
2019-04-14T17:38:04.101Z,49.50
2019-04-14T17:40:57.310Z,50.23
2019-04-14T17:43:39.036Z,48.93
2019-04-14T17:46:26.244Z,48.90
2019-04-14T17:49:18.952Z,48.20
2019-04-14T17:52:12.907Z,49.47
2019-04-14T17:55:02.479Z,48.87
2019-04-14T17:58:00.195Z,49.17
2019-04-14T18:00:47.514Z,47.23
2019-04-14T18:03:40.711Z,47.80
2019-04-14T18:06:40.696Z,48.20
2019-04-14T18:09:36.248Z,48.40
2019-04-14T18:12:30.076Z,46.33
2019-04-14T18:15:11.984Z,47.67
2019-04-14T18:18:07.654Z,47.00
2019-04-14T18:20:47.898Z,47.30
2019-04-14T18:23:22.730Z,47.40
2019-04-14T18:25:57.468Z,46.60
2019-04-14T18:28:57.525Z,45.30
2019-04-14T18:31:54.343Z,47.30
2019-04-14T18:34:37.708Z,45.53
2019-04-14T18:37:32.185Z,45.00
2019-04-14T18:40:10.763Z,44.10
2019-04-14T18:43:02.599Z,43.13
2019-04-14T18:45:44.667Z,43.47
2019-04-14T18:48:26.783Z,43.43
2019-04-14T18:51:10.025Z,45.00
2019-04-14T18:54:00.615Z,42.67
2019-04-14T18:56:54.983Z,44.20
2019-04-14T18:59:41.400Z,44.07
2019-04-14T19:02:18.392Z,44.83
2019-04-14T19:04:53.284Z,44.00
2019-04-14T19:07:28.399Z,45.07
2019-04-14T19:10:03.915Z,42.40
2019-04-14T19:12:46.792Z,44.10
2019-04-14T19:15:42.042Z,44.83
2019-04-14T19:18:28.415Z,46.43
2019-04-14T19:21:15.461Z,47.57
2019-04-14T19:23:50.380Z,48.93
2019-04-14T19:26:28.260Z,49.33
2019-04-14T19:29:03.230Z,48.63
2019-04-14T19:31:38.147Z,48.60
2019-04-14T19:34:12.919Z,45.87
2019-04-14T19:36:47.865Z,44.37
2019-04-14T19:39:24.859Z,45.40
2019-04-14T19:41:59.668Z,44.47
2019-04-14T19:44:34.647Z,46.13
2019-04-14T19:47:09.429Z,44.10
2019-04-14T19:49:44.235Z,43.40
2019-04-14T19:52:19.076Z,43.60
2019-04-14T19:54:53.952Z,44.60
2019-04-14T19:57:29.042Z,43.37
2019-04-14T20:00:05.870Z,43.30
2019-04-14T20:02:40.967Z,43.97
2019-04-14T20:05:15.989Z,42.77
2019-04-14T20:07:51.039Z,43.87
2019-04-14T20:10:28.754Z,45.60
2019-04-14T20:13:03.656Z,47.27
2019-04-14T20:15:57.568Z,59.77
2019-04-14T20:19:10.239Z,51.53
2019-04-14T20:21:58.879Z,48.17
2019-04-14T20:24:50.781Z,48.17
2019-04-14T20:27:35.440Z,46.20
2019-04-14T20:30:14.469Z,45.03
2019-04-14T20:32:50.483Z,45.67
2019-04-14T20:35:25.300Z,46.10
2019-04-14T20:38:00.219Z,48.53
2019-04-14T20:40:35.175Z,46.30
2019-04-14T20:43:09.899Z,47.10
2019-04-14T20:45:44.717Z,45.77
2019-04-14T20:48:19.487Z,45.33
2019-04-14T20:50:54.234Z,43.77
2019-04-14T20:53:29.059Z,43.23
2019-04-14T20:56:03.880Z,44.03
2019-04-14T20:58:38.815Z,44.57
2019-04-14T21:01:15.222Z,43.70
2019-04-14T21:03:58.268Z,43.47
2019-04-14T21:06:52.107Z,43.27
2019-04-14T21:09:52.119Z,44.23
2019-04-14T21:12:54.953Z,44.60
2019-04-14T21:15:45.461Z,44.67
2019-04-14T21:18:42.784Z,44.30
2019-04-14T21:21:23.021Z,44.70
2019-04-14T21:24:19.801Z,44.30
2019-04-14T21:27:00.477Z,44.73
2019-04-14T21:29:43.480Z,43.00
2019-04-14T21:32:21.863Z,44.10
2019-04-14T21:35:04.982Z,43.33
2019-04-14T21:38:01.652Z,44.10
2019-04-14T21:40:51.520Z,42.43
2019-04-14T21:43:26.248Z,43.23
2019-04-14T21:46:01.004Z,43.20
2019-04-14T21:48:35.722Z,41.80
2019-04-14T21:51:12.143Z,41.63
2019-04-14T21:53:47.804Z,40.97
2019-04-14T21:56:35.050Z,41.43
2019-04-14T21:59:16.277Z,41.97
2019-04-14T22:02:09.128Z,41.13
2019-04-14T22:05:05.911Z,39.70
2019-04-14T22:07:58.545Z,39.03
2019-04-14T22:10:43.207Z,39.83
2019-04-14T22:13:18.037Z,39.43
2019-04-14T22:15:52.908Z,38.00
2019-04-14T22:18:27.740Z,38.07
2019-04-14T22:21:02.552Z,38.27
2019-04-14T22:23:37.665Z,38.10
2019-04-14T22:26:25.166Z,41.40
2019-04-14T22:28:49.014Z,40.93
2019-04-14T22:31:23.852Z,40.70
2019-04-14T22:33:58.595Z,41.33
2019-04-14T22:36:33.360Z,37.90
2019-04-14T22:39:09.899Z,38.10
2019-04-14T22:41:45.722Z,37.53
2019-04-14T22:44:20.617Z,37.93
2019-04-14T22:46:55.351Z,37.00
2019-04-14T22:49:30.083Z,36.13
2019-04-14T22:52:05.116Z,36.67
2019-04-14T22:54:39.827Z,36.40
2019-04-14T22:57:14.571Z,37.67
2019-04-14T22:59:49.369Z,38.03
2019-04-14T23:02:49.217Z,38.80
2019-04-14T23:05:41.761Z,37.93
2019-04-14T23:08:47.742Z,38.23
2019-04-14T23:11:33.260Z,38.83
2019-04-14T23:14:25.860Z,37.73
2019-04-14T23:17:19.285Z,37.80
2019-04-14T23:20:12.117Z,37.90
2019-04-14T23:22:57.747Z,37.40
2019-04-14T23:25:32.766Z,38.60
2019-04-14T23:28:07.578Z,38.17
2019-04-14T23:30:42.372Z,38.53
2019-04-14T23:33:17.202Z,38.63
2019-04-14T23:35:52.033Z,37.83
2019-04-14T23:38:26.851Z,37.70
2019-04-14T23:41:01.584Z,37.60
2019-04-14T23:43:36.477Z,37.80
2019-04-14T23:46:11.292Z,37.37
2019-04-14T23:48:46.092Z,38.13
2019-04-14T23:51:20.848Z,39.87
2019-04-14T23:53:56.104Z,39.63
2019-04-14T23:56:31.020Z,38.97
2019-04-14T23:59:05.987Z,37.67
